createdAt,value
2023-02-07T00:00:08.425Z,1.60
2023-02-07T00:03:47.415Z,2.80
2023-02-07T00:07:26.412Z,1.50
2023-02-07T00:10:46.634Z,3.78
2023-02-07T00:14:22.821Z,2.15
2023-02-07T00:17:59.470Z,2.53
2023-02-07T00:21:33.338Z,1.60
2023-02-07T00:25:07.977Z,2.70
2023-02-07T00:28:25.526Z,2.60
2023-02-07T00:31:58.974Z,3.37
2023-02-07T00:35:16.336Z,2.42
2023-02-07T00:38:34.068Z,2.95
2023-02-07T00:41:53.910Z,2.72
2023-02-07T00:45:29.542Z,3.12
2023-02-07T00:48:47.872Z,2.65
2023-02-07T00:52:20.770Z,3.22
2023-02-07T00:59:12.338Z,2.25
2023-02-07T01:02:50.257Z,1.83
2023-02-07T01:06:22.732Z,2.65
2023-02-07T01:09:42.821Z,2.47
2023-02-07T01:13:18.767Z,1.00
2023-02-07T01:16:36.829Z,1.90
2023-02-07T01:20:10.665Z,2.40
2023-02-07T01:23:28.121Z,1.73
2023-02-07T01:27:00.694Z,2.50
2023-02-07T01:30:18.342Z,2.58
2023-02-07T01:33:37.293Z,2.50
2023-02-07T01:36:57.465Z,4.35
2023-02-07T01:40:36.497Z,3.05
2023-02-07T01:43:58.637Z,3.47
2023-02-07T01:50:55.723Z,2.67
2023-02-07T01:54:16.812Z,2.20
2023-02-07T01:57:34.811Z,1.08
2023-02-07T02:01:19.118Z,1.42
2023-02-07T02:04:39.531Z,3.08
2023-02-07T02:08:00.296Z,2.28
2023-02-07T02:11:36.905Z,3.23
2023-02-07T02:15:15.727Z,2.25
2023-02-07T02:18:53.322Z,1.90
2023-02-07T02:22:44.520Z,1.40
2023-02-07T02:26:40.456Z,3.05
2023-02-07T02:30:35.127Z,2.25
2023-02-07T02:34:30.629Z,2.12
2023-02-07T02:37:53.122Z,2.92
2023-02-07T02:41:19.656Z,2.03
2023-02-07T02:45:00.633Z,2.08
2023-02-07T02:48:19.737Z,1.65
2023-02-07T02:51:37.205Z,4.35
2023-02-07T02:55:13.584Z,2.25
2023-02-07T02:59:13.781Z,3.23
2023-02-07T03:02:51.749Z,2.25
2023-02-07T03:06:27.502Z,2.10
2023-02-07T03:10:13.440Z,3.30
2023-02-07T03:13:49.958Z,3.10
2023-02-07T03:17:36.158Z,2.22
2023-02-07T03:21:35.086Z,1.50
2023-02-07T03:24:56.510Z,1.98
2023-02-07T03:28:34.581Z,3.03
2023-02-07T03:31:58.160Z,3.00
2023-02-07T03:35:41.216Z,2.75
2023-02-07T03:39:17.078Z,2.90
2023-02-07T03:42:43.700Z,3.00
2023-02-07T03:46:18.009Z,2.95
2023-02-07T03:49:45.354Z,1.48
2023-02-07T03:53:17.022Z,2.42
2023-02-07T03:56:50.526Z,2.10
2023-02-07T04:00:27.985Z,2.83
2023-02-07T04:04:00.556Z,3.28
2023-02-07T04:07:18.099Z,3.08
2023-02-07T04:11:02.892Z,2.40
2023-02-07T04:14:22.383Z,1.85
2023-02-07T04:17:43.027Z,3.58
2023-02-07T04:21:05.513Z,2.70
2023-02-07T04:24:38.529Z,2.67
2023-02-07T04:27:58.180Z,2.00
2023-02-07T04:31:15.298Z,3.42
2023-02-07T04:34:48.250Z,3.40
2023-02-07T04:41:24.782Z,2.03
2023-02-07T04:44:42.961Z,1.60
2023-02-07T04:48:02.239Z,2.17
2023-02-07T04:51:20.068Z,1.90
2023-02-07T04:54:41.864Z,3.35
2023-02-07T04:57:59.029Z,2.53
2023-02-07T05:01:29.932Z,3.12
2023-02-07T05:05:04.771Z,2.15
2023-02-07T05:08:26.273Z,2.53
2023-02-07T05:11:42.101Z,2.22
2023-02-07T05:14:59.437Z,3.83
2023-02-07T05:18:18.446Z,2.62
2023-02-07T05:21:36.051Z,3.60
2023-02-07T05:24:54.393Z,3.10
2023-02-07T05:28:12.412Z,2.65
2023-02-07T05:32:06.631Z,2.22
2023-02-07T05:35:25.086Z,3.85
2023-02-07T05:38:57.542Z,2.42
2023-02-07T05:42:18.820Z,2.72
2023-02-07T05:45:41.887Z,4.47
2023-02-07T05:49:01.428Z,3.20
2023-02-07T05:52:35.810Z,2.67
2023-02-07T05:56:07.493Z,2.78
2023-02-07T05:59:40.374Z,1.80
2023-02-07T06:02:58.520Z,3.58
2023-02-07T06:06:16.065Z,3.60
2023-02-07T06:09:49.005Z,1.77
2023-02-07T06:13:06.204Z,3.33
2023-02-07T06:16:23.710Z,2.28
2023-02-07T06:19:40.048Z,2.22
2023-02-07T06:22:57.049Z,3.45
2023-02-07T06:26:19.778Z,3.60
2023-02-07T06:29:46.882Z,6.72
2023-02-07T06:33:23.197Z,4.65
2023-02-07T06:36:55.240Z,3.50
2023-02-07T06:40:30.092Z,3.28
2023-02-07T06:44:04.745Z,1.10
2023-02-07T06:47:37.733Z,3.80
2023-02-07T06:50:55.021Z,4.90
2023-02-07T06:54:27.628Z,3.83
2023-02-07T06:57:54.119Z,3.90
2023-02-07T07:01:29.793Z,2.85
2023-02-07T07:05:19.582Z,3.45
2023-02-07T07:08:47.139Z,3.75
2023-02-07T07:12:17.152Z,4.22
2023-02-07T07:16:00.674Z,4.85
2023-02-07T07:19:35.030Z,2.85
2023-02-07T07:23:14.564Z,4.37
2023-02-07T07:26:50.311Z,3.62
2023-02-07T07:30:35.741Z,2.78
2023-02-07T07:34:18.333Z,2.72
2023-02-07T07:37:57.957Z,4.47
2023-02-07T07:41:18.156Z,4.40
2023-02-07T07:45:11.155Z,7.12
2023-02-07T07:49:03.370Z,6.85
2023-02-07T07:52:43.363Z,5.60
2023-02-07T07:56:25.669Z,5.40
2023-02-07T07:59:42.014Z,4.72
2023-02-07T08:03:06.434Z,3.60
2023-02-07T08:06:43.113Z,3.62
2023-02-07T08:10:03.886Z,3.10
2023-02-07T08:13:39.075Z,3.53
2023-02-07T08:17:13.236Z,3.95
2023-02-07T08:20:56.424Z,4.53
2023-02-07T08:25:01.703Z,4.47
2023-02-07T08:28:20.550Z,3.33
2023-02-07T08:31:52.938Z,3.15
2023-02-07T08:35:26.690Z,4.15
2023-02-07T08:38:44.397Z,4.17
2023-02-07T08:42:09.925Z,5.53
2023-02-07T08:46:09.363Z,5.30
2023-02-07T08:49:43.449Z,3.28
2023-02-07T08:53:21.709Z,3.85
2023-02-07T08:57:00.877Z,3.55
2023-02-07T09:00:40.902Z,3.15
2023-02-07T09:04:19.425Z,3.87
2023-02-07T09:07:33.808Z,3.70
2023-02-07T09:11:01.601Z,3.78
2023-02-07T09:14:48.671Z,4.57
2023-02-07T09:22:22.816Z,3.47
2023-02-07T09:26:17.783Z,4.45
2023-02-07T09:29:56.223Z,3.15
2023-02-07T09:33:25.629Z,3.92
2023-02-07T09:36:44.942Z,4.20
2023-02-07T09:40:05.745Z,4.97
2023-02-07T09:43:57.974Z,3.35
2023-02-07T09:47:45.767Z,3.60
2023-02-07T09:51:06.976Z,4.07
2023-02-07T09:54:43.974Z,4.12
2023-02-07T09:58:25.922Z,4.85
2023-02-07T10:01:43.284Z,2.78
2023-02-07T10:05:34.864Z,3.47
2023-02-07T10:13:05.228Z,3.35
2023-02-07T10:16:55.372Z,5.43
2023-02-07T10:20:35.340Z,4.95
2023-02-07T10:24:23.345Z,4.87
2023-02-07T10:55:01.257Z,2.70
2023-02-07T11:02:40.262Z,3.25
2023-02-07T11:06:04.329Z,3.45
2023-02-07T11:09:42.293Z,4.07
2023-02-07T11:13:01.904Z,3.97
2023-02-07T11:16:35.169Z,4.50
2023-02-07T11:20:38.601Z,2.47
2023-02-07T11:24:29.125Z,3.55
2023-02-07T11:28:11.156Z,4.03
2023-02-07T11:32:16.404Z,6.43
2023-02-07T11:35:36.137Z,4.75
2023-02-07T11:39:18.725Z,5.95
2023-02-07T11:43:18.461Z,7.10
2023-02-07T11:50:35.290Z,6.93
2023-02-07T11:54:06.748Z,7.85
2023-02-07T11:57:45.315Z,8.45
2023-02-07T12:01:32.719Z,8.45
2023-02-07T12:05:22.203Z,8.20
2023-02-07T12:08:56.299Z,9.40
2023-02-07T12:21:04.319Z,6.87
2023-02-07T12:24:33.724Z,6.15
2023-02-07T12:28:04.479Z,6.95
2023-02-07T12:32:10.501Z,5.70
2023-02-07T12:36:04.403Z,5.68
2023-02-07T12:40:10.357Z,4.80
2023-02-07T12:44:21.338Z,5.57
2023-02-07T12:48:18.992Z,6.60
2023-02-07T12:52:08.634Z,6.00
2023-02-07T12:55:47.756Z,4.07
2023-02-07T12:59:47.592Z,5.03
2023-02-07T13:03:30.238Z,5.15
2023-02-07T13:06:52.612Z,5.60
2023-02-07T13:10:02.737Z,5.85
2023-02-07T13:13:26.852Z,4.18
2023-02-07T13:17:51.816Z,4.90
2023-02-07T13:21:13.569Z,6.05
2023-02-07T13:24:29.162Z,4.53
2023-02-07T13:27:57.767Z,3.92
2023-02-07T13:31:37.416Z,5.87
2023-02-07T13:35:12.619Z,3.25
2023-02-07T13:39:30.541Z,4.05
2023-02-07T13:43:20.235Z,5.40
2023-02-07T13:47:16.435Z,4.32
2023-02-07T13:50:53.454Z,3.75
2023-02-07T14:03:22.376Z,4.93
2023-02-07T14:06:33.710Z,3.00
2023-02-07T14:09:46.830Z,4.45
2023-02-07T14:12:54.419Z,3.08
2023-02-07T14:16:52.424Z,4.35
2023-02-07T14:24:10.251Z,2.75
2023-02-07T14:27:38.047Z,3.28
2023-02-07T14:31:11.903Z,3.77
2023-02-07T14:35:01.618Z,3.70
2023-02-07T14:38:36.444Z,4.00
2023-02-07T14:41:43.086Z,2.87
2023-02-07T14:44:49.951Z,4.22
2023-02-07T14:52:27.135Z,3.03
2023-02-07T15:03:36.079Z,4.40
2023-02-07T15:06:45.009Z,3.75
2023-02-07T15:09:51.788Z,4.70
2023-02-07T15:13:26.090Z,4.28
2023-02-07T15:16:38.590Z,4.90
2023-02-07T15:20:29.853Z,2.97
2023-02-07T15:24:06.024Z,3.60
2023-02-07T15:27:32.907Z,4.35
2023-02-07T15:31:03.801Z,6.30
2023-02-07T15:34:49.537Z,5.57
2023-02-07T15:38:38.213Z,3.37
2023-02-07T15:42:19.975Z,5.22
2023-02-07T15:46:08.457Z,5.00
2023-02-07T15:50:33.336Z,2.97
2023-02-07T15:54:17.531Z,4.22
2023-02-07T16:06:18.206Z,5.70
2023-02-07T16:13:27.674Z,5.93
2023-02-07T16:25:23.888Z,5.18
2023-02-07T16:37:01.927Z,5.65
2023-02-07T16:40:29.318Z,7.37
2023-02-07T16:44:27.149Z,5.00
2023-02-07T16:48:48.937Z,5.65
2023-02-07T16:52:17.728Z,6.62
2023-02-07T16:56:27.937Z,7.55
2023-02-07T17:00:22.333Z,7.87
2023-02-07T17:04:46.041Z,7.12
2023-02-07T17:16:27.609Z,4.68
2023-02-07T17:19:55.207Z,6.12
2023-02-07T17:23:24.855Z,4.10
2023-02-07T17:27:11.540Z,4.07
2023-02-07T17:30:54.765Z,3.87
2023-02-07T17:34:00.527Z,3.00
2023-02-07T17:37:07.066Z,5.68
2023-02-07T17:40:42.529Z,3.42
2023-02-07T17:44:28.689Z,5.07
2023-02-07T17:47:56.978Z,4.82
2023-02-07T17:51:29.040Z,5.53
2023-02-07T17:54:35.649Z,6.57
2023-02-07T17:58:16.171Z,4.40
2023-02-07T18:01:53.210Z,5.28
2023-02-07T18:05:27.398Z,3.83
2023-02-07T18:08:30.390Z,4.28
2023-02-07T18:11:48.703Z,6.68
2023-02-07T18:15:09.073Z,7.78
2023-02-07T18:18:55.561Z,5.18
2023-02-07T18:22:41.701Z,7.80
2023-02-07T18:26:26.012Z,6.87
2023-02-07T18:33:56.060Z,4.62
2023-02-07T18:41:00.449Z,4.45
2023-02-07T18:44:45.003Z,6.18
2023-02-07T18:48:21.389Z,6.18
2023-02-07T18:52:14.007Z,4.82
2023-02-07T18:55:48.139Z,6.45
2023-02-07T19:02:50.286Z,4.15
2023-02-07T19:06:32.521Z,5.37
2023-02-07T19:10:47.150Z,6.18
2023-02-07T19:21:40.412Z,4.90
2023-02-07T19:25:43.168Z,4.72
2023-02-07T19:29:33.774Z,5.60
2023-02-07T19:33:42.211Z,4.18
2023-02-07T19:41:13.286Z,4.70
2023-02-07T19:49:43.980Z,5.32
2023-02-07T21:06:11.036Z,5.95
2023-02-07T21:08:14.830Z,6.62
2023-02-07T21:11:17.990Z,6.95
2023-02-07T21:14:30.035Z,8.40
2023-02-07T21:17:37.050Z,7.50
2023-02-07T21:20:40.342Z,5.87
2023-02-07T21:23:44.058Z,8.50
2023-02-07T21:26:49.490Z,8.68
2023-02-07T21:29:53.012Z,7.30
2023-02-07T21:32:55.665Z,5.57
2023-02-07T21:36:05.771Z,5.97
2023-02-07T21:39:12.170Z,4.75
2023-02-07T21:42:16.794Z,6.57
2023-02-07T21:45:19.703Z,4.43
2023-02-07T21:48:22.980Z,3.92
2023-02-07T21:51:29.086Z,7.57
2023-02-07T21:57:42.180Z,4.57
2023-02-07T22:00:45.316Z,4.35
2023-02-07T22:03:51.437Z,7.00
2023-02-07T22:06:59.977Z,6.97
2023-02-07T22:10:02.890Z,5.85
2023-02-07T22:13:08.149Z,5.55
2023-02-07T22:16:14.497Z,5.53
2023-02-07T22:19:17.610Z,4.43
2023-02-07T22:22:20.560Z,4.80
2023-02-07T22:25:25.315Z,4.65
2023-02-07T22:28:29.467Z,4.97
2023-02-07T22:31:34.848Z,4.82
2023-02-07T22:34:38.217Z,3.83
2023-02-07T22:37:43.222Z,4.43
2023-02-07T22:40:48.464Z,4.53
2023-02-07T22:43:53.602Z,4.40
2023-02-07T22:46:57.006Z,4.43
2023-02-07T22:50:02.138Z,4.95
2023-02-07T22:53:07.720Z,3.95
2023-02-07T22:56:10.317Z,4.87
2023-02-07T22:59:13.812Z,3.87
2023-02-07T23:02:16.770Z,5.20
2023-02-07T23:05:20.257Z,5.57
2023-02-07T23:08:23.080Z,6.15
2023-02-07T23:11:29.227Z,5.62
2023-02-07T23:14:33.826Z,5.10
2023-02-07T23:17:39.708Z,3.70
2023-02-07T23:20:44.525Z,3.25
2023-02-07T23:23:48.960Z,3.15
2023-02-07T23:26:52.884Z,4.80
2023-02-07T23:29:56.123Z,3.90
2023-02-07T23:33:03.133Z,4.85
2023-02-07T23:36:06.984Z,5.50
2023-02-07T23:39:14.889Z,4.15
2023-02-07T23:42:20.595Z,5.55
2023-02-07T23:45:23.518Z,3.70
2023-02-07T23:48:26.735Z,4.68
2023-02-07T23:51:29.596Z,5.03
2023-02-07T23:54:33.931Z,3.87
2023-02-07T23:57:36.493Z,5.12
